Time;durP1;ratioP1;P1;durP2;ratioP2;P2;SDS_P1;SDS_P2;PMS_P1;PMS_P2;Temp;Humidity;BMP_temperature;BMP_pressure;BME280_temperature;BME280_humidity;BME280_pressure;Samples;Min_cycle;Max_cycle;Signal;HPM_P1;HPM_P2
2021/07/24 00:02:06;;;;;;;12.20;6.10;;;;;;;26.36;44.18;94960.63;5049003;28;20052;-72
2021/07/24 00:04:31;;;;;;;7.53;5.63;;;;;;;26.40;44.29;94972.72;5048938;28;20013;-70
2021/07/24 00:06:59;;;;;;;7.07;5.88;;;;;;;26.39;44.22;94965.03;5048688;28;20028;-72
2021/07/24 00:09:24;;;;;;;9.40;5.72;;;;;;;26.38;44.16;94974.50;5048519;28;20021;-72
2021/07/24 00:11:50;;;;;;;8.07;5.90;;;;;;;26.26;44.20;94945.88;5047547;28;20029;-72
2021/07/24 00:14:15;;;;;;;7.53;6.00;;;;;;;26.36;44.30;94972.31;5048823;28;20028;-71
2021/07/24 00:16:41;;;;;;;7.88;5.60;;;;;;;26.34;44.27;94968.66;5048946;28;20025;-71
2021/07/24 00:19:15;;;;;;;7.30;5.50;;;;;;;26.31;44.46;94975.19;5048772;28;20025;-70
2021/07/24 00:21:41;;;;;;;7.18;5.97;;;;;;;26.31;44.10;94986.13;5048845;28;20051;-71
2021/07/24 00:24:06;;;;;;;6.53;5.80;;;;;;;26.28;44.54;94971.50;5048821;28;20029;-71
2021/07/24 00:26:31;;;;;;;8.65;6.05;;;;;;;26.26;44.42;94967.75;5048517;28;20037;-71
2021/07/24 00:28:57;;;;;;;7.95;5.90;;;;;;;26.26;44.53;94967.03;5036405;28;20033;-71
2021/07/24 00:31:22;;;;;;;7.32;6.00;;;;;;;26.26;44.64;94967.75;5048049;28;20043;-71
2021/07/24 00:33:48;;;;;;;7.22;5.38;;;;;;;26.24;44.71;94969.59;5048495;28;20025;-70
2021/07/24 00:36:16;;;;;;;7.45;5.20;;;;;;;26.24;44.89;94970.31;5048555;28;20025;-70
2021/07/24 00:38:42;;;;;;;8.85;5.72;;;;;;;26.21;44.79;94971.38;5032356;28;20786;-71
2021/07/24 00:41:15;;;;;;;6.80;6.07;;;;;;;26.13;44.76;94954.13;5027391;28;20021;-70
2021/07/24 00:43:40;;;;;;;7.18;5.75;;;;;;;26.16;44.75;94969.47;5027185;28;20026;-72
2021/07/24 00:46:06;;;;;;;8.65;5.85;;;;;;;25.60;44.90;94896.47;5028667;28;20488;-71
2021/07/24 00:48:32;;;;;;;7.47;6.22;;;;;;;26.16;44.86;94957.78;5044083;28;20035;-69
2021/07/24 00:50:58;;;;;;;8.02;5.65;;;;;;;26.13;45.03;94959.59;5047140;28;20459;-71
2021/07/24 00:53:25;;;;;;;7.10;6.07;;;;;;;26.14;45.03;94965.78;5047679;28;20556;-71
2021/07/24 00:55:51;;;;;;;8.40;5.97;;;;;;;26.10;44.98;94965.38;5047929;28;20052;-72
2021/07/24 00:58:27;;;;;;;8.60;5.97;;;;;;;25.95;44.92;94933.09;5048002;28;20029;-71
2021/07/24 01:00:53;;;;;;;7.10;5.97;;;;;;;25.95;45.15;94937.84;5047947;28;20025;-71
2021/07/24 01:03:18;;;;;;;8.27;6.25;;;;;;;26.05;45.15;94964.25;5047926;28;20097;-71
2021/07/24 01:05:44;;;;;;;8.23;6.20;;;;;;;26.03;45.25;94961.28;5046573;28;20056;-70
2021/07/24 01:08:10;;;;;;;8.15;6.85;;;;;;;26.02;45.05;94959.81;5045985;28;20025;-71
2021/07/24 01:10:35;;;;;;;8.95;6.07;;;;;;;25.97;45.27;94957.91;5047596;28;20090;-73
2021/07/24 01:13:01;;;;;;;6.72;5.78;;;;;;;25.98;45.22;94959.41;5047826;28;20036;-71
2021/07/24 01:15:26;;;;;;;8.77;5.95;;;;;;;25.88;44.77;94943.94;5047791;28;20083;-71
2021/07/24 01:17:52;;;;;;;8.75;6.10;;;;;;;25.95;45.52;94954.97;5047512;28;20040;-72
2021/07/24 01:20:18;;;;;;;7.70;6.47;;;;;;;25.42;45.27;94880.88;5047434;28;20419;-71
2021/07/24 01:22:43;;;;;;;10.00;6.47;;;;;;;25.91;45.47;94960.03;5046342;28;20028;-71
2021/07/24 01:25:09;;;;;;;9.75;6.78;;;;;;;25.89;45.44;94957.09;5047575;28;20028;-73
2021/07/24 01:27:43;;;;;;;9.23;5.95;;;;;;;25.31;45.45;94875.63;5044481;28;20029;-72
2021/07/24 01:30:10;;;;;;;8.02;5.97;;;;;;;25.35;45.47;94878.78;5024625;28;20678;-73
2021/07/24 01:32:36;;;;;;;9.00;6.95;;;;;;;25.86;45.35;94958.13;5025987;28;20033;-73
2021/07/24 01:35:01;;;;;;;8.07;6.43;;;;;;;25.34;45.56;94896.47;5027424;28;20025;-70
2021/07/24 01:37:27;;;;;;;8.98;6.22;;;;;;;25.84;45.58;94957.19;5027262;28;20021;-72
2021/07/24 01:39:52;;;;;;;8.07;6.00;;;;;;;25.82;45.59;94946.75;5027252;28;20029;-73
2021/07/24 01:42:18;;;;;;;8.43;6.18;;;;;;;25.24;45.47;94859.84;5027007;28;20033;-72
2021/07/24 01:44:43;;;;;;;7.22;5.82;;;;;;;25.73;45.60;94943.00;5009298;28;20037;-73
2021/07/24 01:47:09;;;;;;;7.53;6.22;;;;;;;25.75;45.72;94945.94;5033114;28;20029;-72
2021/07/24 01:52:49;;;;;;;6.75;5.65;;;;;;;25.72;45.61;94946.97;5047407;28;20039;-71
2021/07/24 01:55:53;;;;;;;9.40;6.30;;;;;;;25.73;45.35;94948.47;5051061;28;20067;-71
2021/07/24 01:58:27;;;;;;;9.25;6.30;;;;;;;25.09;45.50;94853.44;5025597;28;20136;-69
2021/07/24 02:00:53;;;;;;;6.70;5.88;;;;;;;25.70;45.62;94949.53;5036535;28;20071;-70
2021/07/24 02:03:18;;;;;;;7.65;5.68;;;;;;;25.65;45.80;94942.88;5027848;28;20034;-71
2021/07/24 02:05:48;;;;;;;7.60;6.20;;;;;;;25.66;45.58;94940.88;5027460;28;20106;-70
2021/07/24 02:08:21;;;;;;;7.25;5.82;;;;;;;25.65;45.63;94937.41;5027012;28;20046;-70
2021/07/24 02:10:47;;;;;;;8.50;6.55;;;;;;;25.61;45.68;94950.63;5026988;28;20471;-72
2021/07/24 02:13:13;;;;;;;9.98;6.70;;;;;;;25.63;45.27;94950.09;5026961;28;20066;-70
2021/07/24 02:15:39;;;;;;;8.80;6.22;;;;;;;25.63;45.60;94950.09;5025380;28;20083;-70
2021/07/24 02:18:05;;;;;;;8.73;6.35;;;;;;;25.63;45.56;94950.09;5024879;28;20400;-71
2021/07/24 02:20:30;;;;;;;7.35;5.95;;;;;;;25.57;45.25;94950.19;5026795;28;20474;-71
2021/07/24 02:22:56;;;;;;;6.93;5.57;;;;;;;25.56;45.48;94958.94;5034883;28;20021;-72
2021/07/24 02:25:21;;;;;;;7.53;6.45;;;;;;;25.56;45.47;94956.19;5046842;28;20029;-71
2021/07/24 02:27:48;;;;;;;8.20;5.93;;;;;;;25.57;45.35;94947.47;5041589;28;20037;-72
2021/07/24 02:30:14;;;;;;;8.77;6.22;;;;;;;25.42;45.43;94938.31;5028781;28;20116;-72
2021/07/24 02:32:40;;;;;;;8.65;6.10;;;;;;;25.48;45.46;94949.88;5026356;28;20132;-72
2021/07/24 02:35:05;;;;;;;7.22;5.95;;;;;;;25.49;45.39;94951.38;5026573;28;20048;-71
2021/07/24 02:37:31;;;;;;;7.28;6.18;;;;;;;25.48;45.63;94955.34;5026411;28;20052;-72
2021/07/24 02:39:56;;;;;;;7.47;5.78;;;;;;;25.44;45.56;94965.84;5025982;28;20412;-70
2021/07/24 02:42:22;;;;;;;10.40;7.15;;;;;;;25.05;46.05;94913.13;5026060;28;20022;-71
2021/07/24 02:44:47;;;;;;;9.13;6.28;;;;;;;25.39;45.64;94963.97;5024929;28;20025;-71
2021/07/24 02:47:13;;;;;;;9.05;6.82;;;;;;;25.35;45.77;94963.53;5026252;28;20488;-71
2021/07/24 02:49:38;;;;;;;8.68;6.00;;;;;;;25.35;45.59;94969.00;5025994;28;20025;-71
2021/07/24 02:52:04;;;;;;;8.00;5.78;;;;;;;25.32;45.65;94970.06;5025904;28;20032;-71
2021/07/24 02:54:30;;;;;;;8.95;6.05;;;;;;;25.34;45.69;94967.53;5025891;28;20029;-71
2021/07/24 02:56:55;;;;;;;9.50;6.55;;;;;;;25.33;45.61;94966.81;5025008;28;20488;-71
2021/07/24 02:59:21;;;;;;;7.10;5.90;;;;;;;24.75;45.58;94881.81;5025888;28;20033;-71
2021/07/24 03:01:46;;;;;;;8.05;5.85;;;;;;;25.32;45.36;94970.06;5026049;28;20411;-73
2021/07/24 03:04:12;;;;;;;9.57;6.15;;;;;;;25.28;45.54;94966.16;5024714;28;20026;-72
2021/07/24 03:06:37;;;;;;;8.30;6.18;;;;;;;25.27;45.73;94968.16;5025857;28;20030;-71
2021/07/24 03:09:04;;;;;;;8.13;6.20;;;;;;;25.29;45.87;94964.88;5025431;28;20033;-72
2021/07/24 03:11:30;;;;;;;8.10;5.97;;;;;;;24.78;45.57;94894.44;5026100;28;20056;-71
2021/07/24 03:13:55;;;;;;;8.07;5.93;;;;;;;25.30;45.23;94975.31;5025106;28;20484;-71
2021/07/24 03:16:21;;;;;;;8.93;5.82;;;;;;;25.25;45.37;94959.75;5029990;28;20108;-70
2021/07/24 03:18:46;;;;;;;8.88;6.50;;;;;;;25.28;45.32;94975.09;5029487;28;20475;-70
2021/07/24 03:21:12;;;;;;;8.30;5.82;;;;;;;25.19;45.31;94967.28;5030203;28;20064;-71
2021/07/24 03:23:37;;;;;;;6.72;5.70;;;;;;;25.20;45.33;94968.78;5028728;28;20529;-71
2021/07/24 03:26:07;;;;;;;7.15;6.28;;;;;;;25.22;45.51;94966.25;5029461;28;20033;-71
2021/07/24 03:28:33;;;;;;;7.63;5.80;;;;;;;25.24;45.32;94966.47;5031818;28;20052;-71
2021/07/24 03:30:58;;;;;;;9.27;6.00;;;;;;;25.24;45.63;94974.66;5031056;28;20026;-71
2021/07/24 03:33:24;;;;;;;8.05;5.90;;;;;;;25.24;45.24;94969.19;5029812;28;20420;-72
2021/07/24 03:35:49;;;;;;;8.10;6.30;;;;;;;25.21;45.30;94975.69;5029385;28;20033;-71
2021/07/24 03:38:15;;;;;;;7.72;5.97;;;;;;;25.21;45.40;94981.16;5028585;28;20029;-71
2021/07/24 03:40:42;;;;;;;8.38;5.97;;;;;;;25.21;45.65;94975.69;5029589;28;20473;-72
2021/07/24 03:43:07;;;;;;;7.88;6.13;;;;;;;25.20;45.61;94974.25;5029359;28;20061;-71
2021/07/24 03:45:33;;;;;;;8.45;5.95;;;;;;;25.21;45.75;94981.16;5029273;28;20026;-71
2021/07/24 03:47:59;;;;;;;7.53;5.63;;;;;;;25.20;45.28;94985.19;5028963;28;20029;-72
2021/07/24 03:50:24;;;;;;;7.13;6.22;;;;;;;25.21;45.60;94980.44;5028043;28;20057;-73
2021/07/24 03:52:49;;;;;;;8.73;6.07;;;;;;;25.19;45.35;94978.22;5029236;28;20096;-73
2021/07/24 03:55:15;;;;;;;7.93;5.82;;;;;;;25.19;45.69;94989.16;5029143;28;20578;-70
2021/07/24 03:57:40;;;;;;;6.75;5.88;;;;;;;25.20;45.65;94996.09;5029179;28;20095;-72
2021/07/24 04:00:06;;;;;;;7.07;6.18;;;;;;;25.16;45.74;94990.19;5029363;28;20029;-72
2021/07/24 04:02:33;;;;;;;7.85;5.80;;;;;;;25.17;45.63;94997.16;5029178;28;20116;-70
2021/07/24 04:04:59;;;;;;;8.45;5.68;;;;;;;25.17;45.86;94997.16;5028098;28;20474;-72
2021/07/24 04:07:24;;;;;;;7.18;5.55;;;;;;;25.17;45.90;95002.63;5027791;28;20561;-71
2021/07/24 04:09:51;;;;;;;8.55;6.70;;;;;;;25.17;45.83;94997.16;5028865;28;20423;-72
2021/07/24 04:12:17;;;;;;;6.20;5.50;;;;;;;25.18;45.63;95009.53;5027185;28;20090;-71
2021/07/24 04:14:45;;;;;;;8.82;5.97;;;;;;;25.18;45.87;95004.06;5028783;28;20021;-71
2021/07/24 04:17:10;;;;;;;8.50;6.03;;;;;;;25.21;45.91;95008.50;5028963;28;20442;-73
2021/07/24 04:19:36;;;;;;;8.82;5.93;;;;;;;25.20;45.91;95012.50;5028472;28;20032;-71
2021/07/24 04:22:01;;;;;;;8.38;6.03;;;;;;;25.23;45.78;95016.19;5028440;28;20044;-72
2021/07/24 04:24:26;;;;;;;8.05;6.13;;;;;;;25.22;46.04;95009.97;5029060;28;20108;-74
2021/07/24 04:26:52;;;;;;;9.38;6.20;;;;;;;25.12;45.73;95000.69;5027532;28;20037;-71
2021/07/24 04:29:17;;;;;;;8.88;5.90;;;;;;;25.21;45.79;95013.25;5036036;28;20033;-71
2021/07/24 04:31:43;;;;;;;10.38;6.55;;;;;;;25.18;45.90;95015.00;5041809;28;20028;-71
2021/07/24 04:34:08;;;;;;;7.72;6.15;;;;;;;25.12;46.30;95017.09;5045253;28;20041;-72
2021/07/24 04:36:34;;;;;;;8.13;6.50;;;;;;;24.47;46.46;94925.22;5039438;28;20040;-73
2021/07/24 04:38:59;;;;;;;16.08;6.80;;;;;;;25.14;46.11;95013.84;5032831;28;20037;-70
2021/07/24 04:41:25;;;;;;;8.77;6.45;;;;;;;25.12;46.04;95008.88;5031240;28;20052;-73
2021/07/24 04:43:50;;;;;;;9.07;5.68;;;;;;;25.12;46.16;95011.63;5039256;28;20408;-71
2021/07/24 04:46:16;;;;;;;9.27;5.82;;;;;;;25.08;46.36;95011.19;5070762;28;20040;-71
2021/07/24 04:48:41;;;;;;;8.90;5.82;;;;;;;24.36;45.89;94908.97;5039188;28;20030;-70
2021/07/24 04:51:07;;;;;;;8.75;6.15;;;;;;;25.07;46.05;95015.19;5038901;28;20087;-72
2021/07/24 04:53:32;;;;;;;9.25;6.00;;;;;;;25.09;45.88;95020.84;5036958;28;20708;-71
2021/07/24 04:55:58;;;;;;;8.18;6.45;;;;;;;24.94;45.56;94990.50;5042590;28;20059;-73
2021/07/24 04:58:23;;;;;;;9.45;6.25;;;;;;;25.14;45.96;95014.59;5035249;28;20052;-71
2021/07/24 05:00:49;;;;;;;9.50;6.70;;;;;;;25.15;45.94;95010.56;5037720;28;20025;-74
2021/07/24 05:03:15;;;;;;;9.65;6.60;;;;;;;25.14;45.83;95020.06;5043501;28;20078;-72
2021/07/24 05:05:41;;;;;;;9.55;6.07;;;;;;;25.21;46.27;95016.69;5016976;28;20454;-73
2021/07/24 05:08:10;;;;;;;8.15;6.07;;;;;;;25.22;45.63;95020.91;5035804;28;20033;-74
2021/07/24 05:10:36;;;;;;;8.85;5.97;;;;;;;25.27;45.73;95022.09;5038400;28;20911;-74
2021/07/24 05:13:01;;;;;;;7.85;6.00;;;;;;;25.30;45.67;95016.31;5036701;28;20268;-74
2021/07/24 05:15:26;;;;;;;9.15;6.20;;;;;;;25.33;45.44;95020.72;5036320;28;20057;-76
2021/07/24 05:17:52;;;;;;;7.90;6.43;;;;;;;25.29;45.65;95014.84;5036692;28;20419;-77
2021/07/24 05:20:17;;;;;;;9.20;6.80;;;;;;;25.29;45.44;95014.84;5036690;28;20033;-75
2021/07/24 05:22:43;;;;;;;9.57;6.47;;;;;;;25.38;45.38;95019.91;5037597;28;20027;-73
2021/07/24 05:25:09;;;;;;;8.13;6.22;;;;;;;25.37;45.20;95021.16;5037795;28;20071;-73
2021/07/24 05:27:34;;;;;;;8.05;6.30;;;;;;;25.42;44.94;95014.88;5041444;28;20029;-78
2021/07/24 05:30:00;;;;;;;9.35;6.20;;;;;;;25.48;45.02;95020.97;5038755;28;20021;-76
2021/07/24 05:32:26;;;;;;;8.02;6.05;;;;;;;25.54;45.22;95013.41;5038376;28;20080;-76
2021/07/24 05:34:51;;;;;;;10.48;5.93;;;;;;;25.57;45.03;95012.38;5035905;28;20014;-76
2021/07/24 05:37:17;;;;;;;7.85;6.00;;;;;;;25.59;45.02;95016.06;5028011;28;20460;-77
2021/07/24 05:39:42;;;;;;;8.85;6.20;;;;;;;25.67;44.65;95016.22;5028353;28;20071;-76
2021/07/24 05:42:07;;;;;;;7.53;5.95;;;;;;;25.82;45.33;95012.44;5030510;28;20428;-72
2021/07/24 05:44:33;;;;;;;8.63;5.70;;;;;;;25.95;45.30;95009.72;5029939;28;20029;-72
2021/07/24 05:47:01;;;;;;;7.63;5.80;;;;;;;26.03;44.78;95010.53;5026953;28;20057;-71
2021/07/24 05:49:26;;;;;;;8.18;6.03;;;;;;;26.17;44.36;95014.00;5027292;28;20099;-71
2021/07/24 05:51:52;;;;;;;7.65;5.88;;;;;;;26.22;43.81;95005.69;5027688;28;20022;-71
2021/07/24 05:54:18;;;;;;;7.13;5.22;;;;;;;26.30;43.91;95012.03;5029557;28;20033;-73
2021/07/24 05:56:43;;;;;;;11.35;6.55;;;;;;;26.41;43.41;95011.78;5047392;28;20036;-70
2021/07/24 05:59:09;;;;;;;7.15;5.25;;;;;;;26.41;43.18;94995.38;5047097;28;20028;-73
2021/07/24 06:01:34;;;;;;;8.13;5.15;;;;;;;26.53;43.10;95013.03;5046331;28;20040;-78
2021/07/24 06:04:00;;;;;;;10.57;5.47;;;;;;;26.50;43.14;95008.63;5043312;28;20301;-77
2021/07/24 06:06:25;;;;;;;8.07;5.25;;;;;;;26.59;43.50;95010.91;5037196;28;20032;-73
2021/07/24 06:08:51;;;;;;;10.18;6.03;;;;;;;26.65;43.85;95020.50;5036742;28;20131;-72
2021/07/24 06:11:16;;;;;;;8.52;5.78;;;;;;;26.25;44.37;94960.84;5027115;28;20022;-73
2021/07/24 06:13:41;;;;;;;8.00;6.00;;;;;;;26.26;42.90;94945.88;5025687;28;20033;-71
2021/07/24 06:16:10;;;;;;;8.13;6.20;;;;;;;26.90;42.33;95019.72;5025694;28;20806;-69
2021/07/24 06:18:36;;;;;;;8.93;5.80;;;;;;;26.97;42.41;95013.56;5008917;28;20493;-71
2021/07/24 06:21:01;;;;;;;9.85;6.28;;;;;;;27.02;42.29;95018.19;5025763;28;20036;-71
2021/07/24 06:23:27;;;;;;;8.90;5.30;;;;;;;27.05;42.92;95014.38;5028050;28;20025;-70
2021/07/24 06:25:52;;;;;;;8.65;5.90;;;;;;;27.02;42.07;95003.75;5035041;28;20026;-70
2021/07/24 06:28:18;;;;;;;9.48;6.00;;;;;;;27.15;41.36;95018.16;5026708;28;20033;-69
2021/07/24 06:31:20;;;;;;;8.68;6.00;;;;;;;27.32;41.18;95021.22;5025795;28;20033;-68
2021/07/24 06:33:46;;;;;;;8.43;5.82;;;;;;;27.28;41.86;95016.09;5024912;28;20037;-73
2021/07/24 06:36:11;;;;;;;13.35;5.13;;;;;;;27.25;41.93;95019.16;5043930;28;20509;-72
2021/07/24 06:38:37;;;;;;;8.70;5.40;;;;;;;26.97;41.49;94966.25;5046290;28;20013;-72
2021/07/24 06:41:04;;;;;;;8.73;5.50;;;;;;;27.34;41.73;95018.69;5035959;28;20029;-72
2021/07/24 06:43:29;;;;;;;8.43;5.22;;;;;;;27.30;41.78;95024.50;5026563;28;20037;-68
2021/07/24 06:45:54;;;;;;;8.48;5.22;;;;;;;27.38;41.58;95008.13;5025344;28;20386;-74
2021/07/24 06:48:20;;;;;;;8.75;6.07;;;;;;;27.33;40.88;94973.34;5025864;28;20029;-72
2021/07/24 06:50:45;;;;;;;8.93;5.65;;;;;;;27.54;41.27;95004.25;5026525;28;20029;-74
2021/07/24 06:53:11;;;;;;;9.27;5.38;;;;;;;26.63;40.25;94874.38;5026577;28;20029;-74
2021/07/24 06:55:36;;;;;;;8.68;5.30;;;;;;;27.77;40.64;95012.13;5024709;28;20107;-73
2021/07/24 06:58:02;;;;;;;7.50;5.30;;;;;;;27.81;40.34;95014.53;5026705;28;20596;-73
2021/07/24 07:00:31;;;;;;;8.20;5.28;;;;;;;27.71;41.20;95004.56;5026172;28;20037;-72
2021/07/24 07:02:59;;;;;;;7.22;5.10;;;;;;;27.70;40.63;95000.34;5026195;28;20025;-74
2021/07/24 07:05:26;;;;;;;6.90;4.63;;;;;;;27.69;40.29;94979.69;5026251;28;20116;-72
2021/07/24 07:07:52;;;;;;;6.57;4.90;;;;;;;27.92;40.76;95004.00;5026075;28;20022;-74
2021/07/24 07:10:17;;;;;;;8.55;5.18;;;;;;;27.98;41.08;95010.06;5026218;28;20300;-74
2021/07/24 07:12:43;;;;;;;8.40;5.00;;;;;;;27.91;41.19;94999.78;5024897;28;20037;-74
2021/07/24 07:15:09;;;;;;;8.82;5.15;;;;;;;27.94;40.50;95004.19;5026497;28;20095;-73
2021/07/24 07:17:35;;;;;;;8.57;4.32;;;;;;;27.98;41.18;95010.06;5026266;28;20044;-74
2021/07/24 07:20:08;;;;;;;8.73;4.88;;;;;;;27.83;41.51;94995.50;5026391;28;20065;-76
2021/07/24 07:22:33;;;;;;;7.43;4.60;;;;;;;27.94;41.19;95004.19;5029063;28;20040;-76
2021/07/24 07:24:59;;;;;;;8.07;5.25;;;;;;;27.40;40.98;94948.00;5024039;28;20384;-75
2021/07/24 07:27:24;;;;;;;7.00;4.70;;;;;;;27.82;41.80;94997.53;5024813;28;20037;-74
2021/07/24 07:29:50;;;;;;;9.18;4.60;;;;;;;27.80;41.67;95000.06;5024740;28;20052;-74
2021/07/24 07:32:15;;;;;;;6.70;4.13;;;;;;;27.78;41.75;95004.63;5024404;28;20056;-73
2021/07/24 07:34:41;;;;;;;8.90;4.55;;;;;;;27.76;41.73;95005.16;5024413;28;20033;-77
2021/07/24 07:37:06;;;;;;;9.25;4.90;;;;;;;27.75;42.10;95003.69;5023923;28;20689;-76
2021/07/24 07:39:32;;;;;;;9.45;4.95;;;;;;;27.09;41.96;94909.88;5007824;28;20087;-75
2021/07/24 07:41:57;;;;;;;7.70;4.70;;;;;;;27.78;42.40;95002.59;5027738;28;20017;-75
2021/07/24 07:44:24;;;;;;;6.95;4.50;;;;;;;27.75;42.31;94997.47;5026766;28;20065;-74
2021/07/24 07:46:50;;;;;;;9.73;4.72;;;;;;;27.73;44.44;95000.75;5026019;28;20655;-75
2021/07/24 07:49:16;;;;;;;7.75;4.68;;;;;;;27.54;44.72;94965.84;5025804;28;20064;-75
2021/07/24 07:51:41;;;;;;;7.53;4.38;;;;;;;27.57;44.14;94964.78;5026020;28;20022;-74
2021/07/24 07:54:07;;;;;;;10.57;4.35;;;;;;;27.79;46.89;95004.09;5026304;28;20508;-74
2021/07/24 07:56:32;;;;;;;7.93;4.35;;;;;;;27.63;45.48;94973.59;5028104;28;20047;-74
2021/07/24 07:58:58;;;;;;;7.30;4.05;;;;;;;27.85;45.92;94999.19;5026296;28;20413;-75
2021/07/24 08:01:23;;;;;;;6.75;3.92;;;;;;;27.79;45.44;94998.59;5028991;28;20033;-75
2021/07/24 08:03:49;;;;;;;8.77;4.32;;;;;;;27.75;46.46;94998.19;5029657;28;20179;-74
2021/07/24 08:06:15;;;;;;;8.80;4.40;;;;;;;27.55;48.59;94959.06;5030026;28;20037;-74
2021/07/24 08:08:41;;;;;;;7.35;4.15;;;;;;;27.76;45.74;94999.69;5029811;28;20030;-74
2021/07/24 08:11:06;;;;;;;7.53;3.97;;;;;;;27.73;45.30;94986.31;5029120;28;20017;-74
2021/07/24 08:13:31;;;;;;;8.10;3.80;;;;;;;27.68;47.53;94991.91;5029579;28;20408;-74
2021/07/24 08:15:57;;;;;;;7.32;4.25;;;;;;;27.64;46.61;94986.78;5029531;28;20028;-74
2021/07/24 08:18:22;;;;;;;4.95;3.60;;;;;;;27.63;46.68;94990.06;5028410;28;20304;-74
2021/07/24 08:20:48;;;;;;;6.22;3.90;;;;;;;27.62;47.38;94991.31;5029077;28;20539;-74
2021/07/24 08:23:13;;;;;;;7.13;3.90;;;;;;;27.61;46.88;94992.59;5029574;28;20022;-74
2021/07/24 08:25:39;;;;;;;6.10;4.07;;;;;;;27.60;46.50;94991.13;5028798;28;20459;-75
2021/07/24 08:28:05;;;;;;;5.95;3.85;;;;;;;27.61;47.07;94987.09;5028461;28;20029;-73
2021/07/24 08:30:31;;;;;;;6.28;3.20;;;;;;;27.61;47.03;94989.84;5030761;28;20037;-74
2021/07/24 08:32:56;;;;;;;9.13;4.32;;;;;;;27.60;47.51;94991.13;5035081;28;20045;-74
2021/07/24 08:35:22;;;;;;;6.93;3.88;;;;;;;27.51;47.73;94972.41;5030038;28;20037;-75
2021/07/24 08:37:47;;;;;;;6.45;3.60;;;;;;;27.55;47.04;94983.75;5033183;28;20239;-74
2021/07/24 08:40:14;;;;;;;7.70;3.72;;;;;;;27.53;47.42;94980.84;5033931;28;20032;-73
2021/07/24 08:42:39;;;;;;;6.57;3.70;;;;;;;27.54;47.39;94983.03;5044032;28;20028;-75
2021/07/24 08:45:05;;;;;;;7.32;3.55;;;;;;;27.57;46.76;94981.25;5048136;28;20110;-75
2021/07/24 08:47:31;;;;;;;6.15;3.95;;;;;;;27.58;46.95;94988.94;5047876;28;20633;-73
2021/07/24 08:49:57;;;;;;;8.50;3.63;;;;;;;27.56;46.70;94979.75;5047953;28;20032;-73
2021/07/24 08:52:25;;;;;;;6.28;3.60;;;;;;;27.04;46.46;94900.53;5046635;28;20032;-75
2021/07/24 08:54:51;;;;;;;6.40;3.50;;;;;;;27.60;45.94;94980.16;5046347;28;20076;-74
2021/07/24 08:57:16;;;;;;;5.60;3.45;;;;;;;27.60;46.45;94985.66;5048032;28;20703;-73
2021/07/24 08:59:42;;;;;;;5.85;3.80;;;;;;;27.59;45.81;94981.44;5029957;28;20036;-72
2021/07/24 09:02:09;;;;;;;7.20;3.75;;;;;;;27.58;46.16;94977.97;5046375;28;20028;-75
2021/07/24 09:04:34;;;;;;;4.45;3.05;;;;;;;27.54;45.83;94971.34;5046544;28;20017;-73
2021/07/24 09:07:02;;;;;;;7.10;3.42;;;;;;;27.61;45.71;94978.88;5029654;28;20063;-73
2021/07/24 09:09:28;;;;;;;6.15;3.53;;;;;;;27.60;46.16;94980.16;5046483;28;20688;-75
2021/07/24 09:11:53;;;;;;;6.93;3.20;;;;;;;27.61;46.10;94989.84;5047078;28;20028;-74
2021/07/24 09:14:19;;;;;;;5.13;3.42;;;;;;;27.43;45.67;94966.13;5047563;28;20040;-74
2021/07/24 09:16:44;;;;;;;6.18;3.47;;;;;;;27.63;45.90;94985.31;5047645;28;20495;-74
2021/07/24 09:19:10;;;;;;;5.55;3.67;;;;;;;27.61;45.53;94987.09;5047450;28;20029;-74
2021/07/24 09:21:37;;;;;;;5.45;3.25;;;;;;;27.63;45.39;94990.06;5029726;28;20630;-73
2021/07/24 09:24:22;;;;;;;5.75;3.92;;;;;;;27.60;45.25;94986.38;5047478;28;20036;-74
2021/07/24 09:26:48;;;;;;;5.70;3.67;;;;;;;27.62;45.62;94988.59;5047260;28;20495;-73
2021/07/24 09:29:17;;;;;;;4.40;3.35;;;;;;;27.62;45.26;94989.31;5047095;28;20021;-74
2021/07/24 09:31:43;;;;;;;6.05;3.88;;;;;;;27.63;45.30;94988.03;5047457;28;20039;-75
2021/07/24 09:34:09;;;;;;;4.80;3.40;;;;;;;27.44;45.55;94956.59;5047280;28;20037;-74
2021/07/24 09:36:35;;;;;;;6.57;3.65;;;;;;;27.64;45.28;94992.28;5047059;28;20024;-74
2021/07/24 09:39:10;;;;;;;4.55;3.28;;;;;;;27.63;45.04;94995.56;5046938;28;20162;-74
2021/07/24 09:41:37;;;;;;;5.35;3.67;;;;;;;27.65;45.18;94998.47;5034932;28;20136;-74
2021/07/24 09:44:02;;;;;;;5.25;3.20;;;;;;;27.64;45.23;94997.00;5047072;28;20025;-74
2021/07/24 09:46:28;;;;;;;4.57;3.72;;;;;;;27.65;45.32;94993.00;5046832;28;20029;-74
2021/07/24 09:48:54;;;;;;;5.10;3.65;;;;;;;27.66;45.20;94999.97;5046662;28;20029;-74
2021/07/24 09:51:32;;;;;;;5.78;3.40;;;;;;;27.64;45.07;95008.75;5046748;28;20021;-74
2021/07/24 09:53:57;;;;;;;5.47;3.35;;;;;;;27.67;45.11;95001.41;5046793;28;20024;-74
2021/07/24 09:56:42;;;;;;;4.43;3.47;;;;;;;27.67;44.51;95013.16;5046371;28;20557;-74
2021/07/24 09:59:30;;;;;;;4.30;3.20;;;;;;;27.69;44.74;95015.34;5043143;28;20071;-74
2021/07/24 10:01:59;;;;;;;4.45;3.28;;;;;;;27.69;44.66;95015.34;5025431;28;20025;-74
2021/07/24 10:04:25;;;;;;;5.05;3.42;;;;;;;27.72;44.83;95014.28;5030531;28;20036;-74
2021/07/24 10:06:52;;;;;;;4.55;3.20;;;;;;;26.90;44.68;94893.63;5030636;28;20445;-74
2021/07/24 10:09:18;;;;;;;6.20;3.60;;;;;;;27.73;44.48;95026.72;5025246;28;20030;-73
2021/07/24 10:11:43;;;;;;;5.97;3.30;;;;;;;27.74;44.63;95029.69;5009174;28;20082;-74
2021/07/24 10:14:09;;;;;;;4.70;3.33;;;;;;;26.93;44.63;94903.53;5026788;28;20026;-75
2021/07/24 10:16:34;;;;;;;5.07;3.30;;;;;;;27.76;44.67;95010.66;5008813;28;20029;-74
2021/07/24 10:19:00;;;;;;;6.20;3.33;;;;;;;27.78;44.44;95019.06;5024671;28;20037;-73
2021/07/24 10:21:25;;;;;;;5.47;3.60;;;;;;;27.80;44.39;95015.78;5025120;28;20051;-74
2021/07/24 10:23:51;;;;;;;4.90;3.38;;;;;;;27.81;44.62;95023.47;5025471;28;20037;-74
2021/07/24 10:26:17;;;;;;;3.75;3.08;;;;;;;27.83;44.28;95025.69;5026272;28;20034;-73
2021/07/24 10:28:53;;;;;;;5.00;3.33;;;;;;;27.85;44.38;95028.66;5024868;28;20121;-73
2021/07/24 10:31:40;;;;;;;4.00;3.05;;;;;;;27.84;43.99;95016.91;5026106;28;20499;-75
2021/07/24 10:34:07;;;;;;;5.38;3.42;;;;;;;27.90;44.37;95025.75;5010096;28;20079;-73
2021/07/24 10:36:39;;;;;;;4.65;3.15;;;;;;;27.92;44.20;95031.47;5026323;28;20025;-74
2021/07/24 10:39:10;;;;;;;5.03;3.20;;;;;;;27.91;44.17;95021.75;5026386;28;20445;-74
2021/07/24 10:41:36;;;;;;;4.57;2.88;;;;;;;27.91;44.40;95027.22;5033468;28;20095;-74
2021/07/24 10:44:09;;;;;;;5.18;3.42;;;;;;;27.92;44.22;95022.47;5008562;28;20061;-74
2021/07/24 10:46:44;;;;;;;3.85;2.95;;;;;;;27.95;44.56;95026.88;5026110;28;20124;-73
2021/07/24 10:49:21;;;;;;;5.72;3.22;;;;;;;27.94;44.04;95037.13;5026078;28;20134;-74
2021/07/24 10:51:54;;;;;;;5.22;3.00;;;;;;;27.95;44.55;95035.88;5026166;28;20522;-73
2021/07/24 10:54:19;;;;;;;8.00;3.85;;;;;;;27.96;43.75;95036.59;5024529;28;20037;-71
2021/07/24 10:56:45;;;;;;;7.28;3.72;;;;;;;27.99;43.61;95030.75;5026171;28;20435;-71
2021/07/24 10:59:13;;;;;;;4.93;3.65;;;;;;;28.00;41.07;95034.25;5025425;28;20033;-71
2021/07/24 11:01:52;;;;;;;7.40;3.92;;;;;;;27.96;40.74;95039.34;5026016;28;20094;-71
2021/07/24 11:04:38;;;;;;;7.90;4.40;;;;;;;27.90;39.92;95042.22;5025288;28;20021;-71
2021/07/24 11:07:13;;;;;;;8.35;4.88;;;;;;;27.88;40.14;95041.31;5026140;28;20397;-71
2021/07/24 11:09:58;;;;;;;7.93;4.60;;;;;;;27.81;39.43;95045.44;5026124;28;20080;-71
2021/07/24 11:12:36;;;;;;;8.25;4.68;;;;;;;27.34;39.39;94977.56;5026603;28;20124;-72
2021/07/24 11:15:05;;;;;;;5.72;3.92;;;;;;;27.76;39.38;95043.59;5025727;28;20047;-71
2021/07/24 11:17:31;;;;;;;6.22;4.20;;;;;;;27.53;40.10;95002.78;5025872;28;20037;-73
2021/07/24 11:19:56;;;;;;;23.95;5.75;;;;;;;27.75;39.81;95042.09;5026383;28;20022;-74
2021/07/24 11:22:22;;;;;;;7.95;4.45;;;;;;;27.76;40.23;95031.88;5034469;28;20063;-74
2021/07/24 11:24:50;;;;;;;7.15;4.65;;;;;;;27.70;41.66;95033.28;5029784;28;20507;-78
2021/07/24 11:27:36;;;;;;;6.63;4.65;;;;;;;27.46;42.30;95019.91;5049747;28;20033;-77
2021/07/24 11:30:05;;;;;;;7.03;4.60;;;;;;;27.37;40.91;95023.13;5055608;28;20041;-77
2021/07/24 11:32:31;;;;;;;4.93;4.18;;;;;;;27.39;41.88;95026.06;5036905;28;20610;-75
2021/07/24 11:35:05;;;;;;;5.32;4.20;;;;;;;27.31;41.57;95014.28;5044188;28;20025;-80
2021/07/24 11:37:44;;;;;;;7.13;4.82;;;;;;;27.29;41.71;95014.06;5045160;28;20047;-81